<?xml version="1.0" encoding="UTF-8" standalone="no" ?>
<gpx xmlns="http://www.topografix.com/GPX/1/1" xmlns:xsi="http://www.w3.org/2001/XMLSchema-instance" xsi:schemaLocation="http://www.topografix.com/GPX/1/1 http://www.topografix.com/GPX/1/1/gpx.xsd" version="1.1" creator="VisuGPX - https://www.visugpx.com">
  <metadata>
    <name>Beauvais - Forges-les-Eaux (PLM 2019)</name>
    <desc><![CDATA[Beauvais - Forges-les-Eaux (2ème étape de Pontoise - Le Tréport 2019)]]></desc>
  </metadata>
  <trk>
    <name><![CDATA[9310180-2ème étape PLM 2019]]></name>
    <trkseg>
      <trkpt lat="49.40883" lon="2.11094">
        <ele>81</ele>
        <time>2019-05-20T17:32:28Z</time>
      </trkpt>
      <trkpt lat="49.40828" lon="2.11041">
        <ele>82</ele>
        <time>2019-05-20T17:32:43Z</time>
      </trkpt>
      <trkpt lat="49.40753" lon="2.11189">
        <ele>83</ele>
        <time>2019-05-20T17:33:12Z</time>
      </trkpt>
      <trkpt lat="49.40646" lon="2.11304">
        <ele>82</ele>
        <time>2019-05-20T17:33:42Z</time>
      </trkpt>
      <trkpt lat="49.40549" lon="2.11442">
        <ele>75</ele>
        <time>2019-05-20T17:34:13Z</time>
      </trkpt>
      <trkpt lat="49.40483" lon="2.11261">
        <ele>79</ele>
        <time>2019-05-20T17:34:45Z</time>
      </trkpt>
      <trkpt lat="49.40432" lon="2.1109">
        <ele>82</ele>
        <time>2019-05-20T17:35:13Z</time>
      </trkpt>
      <trkpt lat="49.4052" lon="2.10956">
        <ele>92</ele>
        <time>2019-05-20T17:35:42Z</time>
      </trkpt>
      <trkpt lat="49.40575" lon="2.1093">
        <ele>97</ele>
        <time>2019-05-20T17:35:56Z</time>
      </trkpt>
      <trkpt lat="49.40602" lon="2.1094">
        <ele>96</ele>
        <time>2019-05-20T17:36:02Z</time>
      </trkpt>
      <trkpt lat="49.40632" lon="2.10841">
        <ele>99</ele>
        <time>2019-05-20T17:36:19Z</time>
      </trkpt>
      <trkpt lat="49.40547" lon="2.10757">
        <ele>99</ele>
        <time>2019-05-20T17:36:42Z</time>
      </trkpt>
      <trkpt lat="49.40508" lon="2.10631">
        <ele>100</ele>
        <time>2019-05-20T17:37:03Z</time>
      </trkpt>
      <trkpt lat="49.40484" lon="2.10569">
        <ele>101</ele>
        <time>2019-05-20T17:37:14Z</time>
      </trkpt>
      <trkpt lat="49.40381" lon="2.10385">
        <ele>100</ele>
        <time>2019-05-20T17:37:51Z</time>
      </trkpt>
      <trkpt lat="49.40394" lon="2.09753">
        <ele>110</ele>
        <time>2019-05-20T17:39:27Z</time>
      </trkpt>
      <trkpt lat="49.40323" lon="2.09478">
        <ele>114</ele>
        <time>2019-05-20T17:40:12Z</time>
      </trkpt>
      <trkpt lat="49.40318" lon="2.09392">
        <ele>116</ele>
        <time>2019-05-20T17:40:25Z</time>
      </trkpt>
      <trkpt lat="49.40301" lon="2.09329">
        <ele>117</ele>
        <time>2019-05-20T17:40:36Z</time>
      </trkpt>
      <trkpt lat="49.40283" lon="2.08934">
        <ele>124</ele>
        <time>2019-05-20T17:41:36Z</time>
      </trkpt>
      <trkpt lat="49.40293" lon="2.08836">
        <ele>126</ele>
        <time>2019-05-20T17:41:51Z</time>
      </trkpt>
      <trkpt lat="49.40296" lon="2.08571">
        <ele>132</ele>
        <time>2019-05-20T17:42:31Z</time>
      </trkpt>
      <trkpt lat="49.40263" lon="2.08385">
        <ele>134</ele>
        <time>2019-05-20T17:43:01Z</time>
      </trkpt>
      <trkpt lat="49.40244" lon="2.08046">
        <ele>142</ele>
        <time>2019-05-20T17:43:52Z</time>
      </trkpt>
      <trkpt lat="49.40118" lon="2.07661">
        <ele>144</ele>
        <time>2019-05-20T17:44:58Z</time>
      </trkpt>
      <trkpt lat="49.40142" lon="2.07259">
        <ele>148</ele>
        <time>2019-05-20T17:45:59Z</time>
      </trkpt>
      <trkpt lat="49.40206" lon="2.07086">
        <ele>153</ele>
        <time>2019-05-20T17:46:29Z</time>
      </trkpt>
      <trkpt lat="49.4026" lon="2.06877">
        <ele>156</ele>
        <time>2019-05-20T17:47:04Z</time>
      </trkpt>
      <trkpt lat="49.40445" lon="2.06559">
        <ele>160</ele>
        <time>2019-05-20T17:48:08Z</time>
      </trkpt>
      <trkpt lat="49.40607" lon="2.06362">
        <ele>154</ele>
        <time>2019-05-20T17:48:57Z</time>
      </trkpt>
      <trkpt lat="49.40684" lon="2.0621">
        <ele>151</ele>
        <time>2019-05-20T17:49:26Z</time>
      </trkpt>
      <trkpt lat="49.4078" lon="2.06196">
        <ele>154</ele>
        <time>2019-05-20T17:49:48Z</time>
      </trkpt>
      <trkpt lat="49.40907" lon="2.05745">
        <ele>131</ele>
        <time>2019-05-20T17:51:03Z</time>
      </trkpt>
      <trkpt lat="49.4091" lon="2.05657">
        <ele>124</ele>
        <time>2019-05-20T17:51:16Z</time>
      </trkpt>
      <trkpt lat="49.40957" lon="2.05556">
        <ele>122</ele>
        <time>2019-05-20T17:51:35Z</time>
      </trkpt>
      <trkpt lat="49.41009" lon="2.05209">
        <ele>103</ele>
        <time>2019-05-20T17:52:29Z</time>
      </trkpt>
      <trkpt lat="49.4103" lon="2.0517">
        <ele>102</ele>
        <time>2019-05-20T17:52:37Z</time>
      </trkpt>
      <trkpt lat="49.4121" lon="2.05032">
        <ele>107</ele>
        <time>2019-05-20T17:53:24Z</time>
      </trkpt>
      <trkpt lat="49.41366" lon="2.0487">
        <ele>100</ele>
        <time>2019-05-20T17:54:08Z</time>
      </trkpt>
      <trkpt lat="49.42029" lon="2.04814">
        <ele>127</ele>
        <time>2019-05-20T17:56:43Z</time>
      </trkpt>
      <trkpt lat="49.42113" lon="2.04845">
        <ele>131</ele>
        <time>2019-05-20T17:57:03Z</time>
      </trkpt>
      <trkpt lat="49.42197" lon="2.0489">
        <ele>131</ele>
        <time>2019-05-20T17:57:24Z</time>
      </trkpt>
      <trkpt lat="49.42267" lon="2.0498">
        <ele>132</ele>
        <time>2019-05-20T17:57:45Z</time>
      </trkpt>
      <trkpt lat="49.42296" lon="2.0507">
        <ele>132</ele>
        <time>2019-05-20T17:58:01Z</time>
      </trkpt>
      <trkpt lat="49.42311" lon="2.04968">
        <ele>126</ele>
        <time>2019-05-20T17:58:17Z</time>
      </trkpt>
      <trkpt lat="49.42289" lon="2.04843">
        <ele>119</ele>
        <time>2019-05-20T17:58:36Z</time>
      </trkpt>
      <trkpt lat="49.42281" lon="2.04751">
        <ele>111</ele>
        <time>2019-05-20T17:58:50Z</time>
      </trkpt>
      <trkpt lat="49.42285" lon="2.04643">
        <ele>100</ele>
        <time>2019-05-20T17:59:07Z</time>
      </trkpt>
      <trkpt lat="49.42278" lon="2.04527">
        <ele>89</ele>
        <time>2019-05-20T17:59:24Z</time>
      </trkpt>
      <trkpt lat="49.42308" lon="2.04287">
        <ele>73</ele>
        <time>2019-05-20T18:00:02Z</time>
      </trkpt>
      <trkpt lat="49.42318" lon="2.03935">
        <ele>69</ele>
        <time>2019-05-20T18:00:55Z</time>
      </trkpt>
      <trkpt lat="49.42302" lon="2.03856">
        <ele>71</ele>
        <time>2019-05-20T18:01:08Z</time>
      </trkpt>
      <trkpt lat="49.42322" lon="2.03805">
        <ele>74</ele>
        <time>2019-05-20T18:01:17Z</time>
      </trkpt>
      <trkpt lat="49.42501" lon="2.03818">
        <ele>76</ele>
        <time>2019-05-20T18:01:59Z</time>
      </trkpt>
      <trkpt lat="49.42641" lon="2.03795">
        <ele>73</ele>
        <time>2019-05-20T18:02:31Z</time>
      </trkpt>
      <trkpt lat="49.42659" lon="2.03842">
        <ele>72</ele>
        <time>2019-05-20T18:02:40Z</time>
      </trkpt>
      <trkpt lat="49.42751" lon="2.03829">
        <ele>75</ele>
        <time>2019-05-20T18:03:01Z</time>
      </trkpt>
      <trkpt lat="49.42908" lon="2.03849">
        <ele>89</ele>
        <time>2019-05-20T18:03:38Z</time>
      </trkpt>
      <trkpt lat="49.42998" lon="2.03883">
        <ele>95</ele>
        <time>2019-05-20T18:04:00Z</time>
      </trkpt>
      <trkpt lat="49.43038" lon="2.03843">
        <ele>98</ele>
        <time>2019-05-20T18:04:11Z</time>
      </trkpt>
      <trkpt lat="49.43012" lon="2.03753">
        <ele>100</ele>
        <time>2019-05-20T18:04:26Z</time>
      </trkpt>
      <trkpt lat="49.43008" lon="2.03703">
        <ele>101</ele>
        <time>2019-05-20T18:04:33Z</time>
      </trkpt>
      <trkpt lat="49.43025" lon="2.03571">
        <ele>108</ele>
        <time>2019-05-20T18:04:54Z</time>
      </trkpt>
      <trkpt lat="49.43254" lon="2.02856">
        <ele>143</ele>
        <time>2019-05-20T18:06:55Z</time>
      </trkpt>
      <trkpt lat="49.4336" lon="2.02618">
        <ele>150</ele>
        <time>2019-05-20T18:07:39Z</time>
      </trkpt>
      <trkpt lat="49.4347" lon="2.02256">
        <ele>156</ele>
        <time>2019-05-20T18:08:39Z</time>
      </trkpt>
      <trkpt lat="49.43729" lon="2.01929">
        <ele>168</ele>
        <time>2019-05-20T18:09:58Z</time>
      </trkpt>
      <trkpt lat="49.43962" lon="2.01429">
        <ele>166</ele>
        <time>2019-05-20T18:11:31Z</time>
      </trkpt>
      <trkpt lat="49.43972" lon="2.01362">
        <ele>163</ele>
        <time>2019-05-20T18:11:42Z</time>
      </trkpt>
      <trkpt lat="49.44057" lon="2.01148">
        <ele>159</ele>
        <time>2019-05-20T18:12:20Z</time>
      </trkpt>
      <trkpt lat="49.44131" lon="2.01045">
        <ele>159</ele>
        <time>2019-05-20T18:12:43Z</time>
      </trkpt>
      <trkpt lat="49.44285" lon="2.00727">
        <ele>158</ele>
        <time>2019-05-20T18:13:43Z</time>
      </trkpt>
      <trkpt lat="49.44488" lon="2.00388">
        <ele>170</ele>
        <time>2019-05-20T18:14:53Z</time>
      </trkpt>
      <trkpt lat="49.44519" lon="2.00307">
        <ele>170</ele>
        <time>2019-05-20T18:15:07Z</time>
      </trkpt>
      <trkpt lat="49.44565" lon="2.00105">
        <ele>168</ele>
        <time>2019-05-20T18:15:40Z</time>
      </trkpt>
      <trkpt lat="49.44627" lon="1.99895">
        <ele>167</ele>
        <time>2019-05-20T18:16:15Z</time>
      </trkpt>
      <trkpt lat="49.44715" lon="1.9971">
        <ele>166</ele>
        <time>2019-05-20T18:16:50Z</time>
      </trkpt>
      <trkpt lat="49.44802" lon="1.99392">
        <ele>158</ele>
        <time>2019-05-20T18:17:42Z</time>
      </trkpt>
      <trkpt lat="49.44847" lon="1.9926">
        <ele>158</ele>
        <time>2019-05-20T18:18:05Z</time>
      </trkpt>
      <trkpt lat="49.44932" lon="1.99105">
        <ele>160</ele>
        <time>2019-05-20T18:18:36Z</time>
      </trkpt>
      <trkpt lat="49.45096" lon="1.98854">
        <ele>158</ele>
        <time>2019-05-20T18:19:30Z</time>
      </trkpt>
      <trkpt lat="49.45148" lon="1.98779">
        <ele>157</ele>
        <time>2019-05-20T18:19:46Z</time>
      </trkpt>
      <trkpt lat="49.45241" lon="1.98582">
        <ele>146</ele>
        <time>2019-05-20T18:20:23Z</time>
      </trkpt>
      <trkpt lat="49.45507" lon="1.98225">
        <ele>142</ele>
        <time>2019-05-20T18:21:46Z</time>
      </trkpt>
      <trkpt lat="49.45917" lon="1.97793">
        <ele>157</ele>
        <time>2019-05-20T18:23:42Z</time>
      </trkpt>
      <trkpt lat="49.45929" lon="1.97696">
        <ele>156</ele>
        <time>2019-05-20T18:23:57Z</time>
      </trkpt>
      <trkpt lat="49.46064" lon="1.97391">
        <ele>161</ele>
        <time>2019-05-20T18:24:53Z</time>
      </trkpt>
      <trkpt lat="49.46235" lon="1.97182">
        <ele>155</ele>
        <time>2019-05-20T18:25:44Z</time>
      </trkpt>
      <trkpt lat="49.46336" lon="1.96972">
        <ele>153</ele>
        <time>2019-05-20T18:26:23Z</time>
      </trkpt>
      <trkpt lat="49.46357" lon="1.96808">
        <ele>156</ele>
        <time>2019-05-20T18:26:49Z</time>
      </trkpt>
      <trkpt lat="49.46444" lon="1.96639">
        <ele>156</ele>
        <time>2019-05-20T18:27:21Z</time>
      </trkpt>
      <trkpt lat="49.46479" lon="1.96525">
        <ele>157</ele>
        <time>2019-05-20T18:27:41Z</time>
      </trkpt>
      <trkpt lat="49.46512" lon="1.96499">
        <ele>157</ele>
        <time>2019-05-20T18:27:49Z</time>
      </trkpt>
      <trkpt lat="49.46568" lon="1.96714">
        <ele>151</ele>
        <time>2019-05-20T18:28:24Z</time>
      </trkpt>
      <trkpt lat="49.46599" lon="1.96723">
        <ele>150</ele>
        <time>2019-05-20T18:28:32Z</time>
      </trkpt>
      <trkpt lat="49.46666" lon="1.96631">
        <ele>151</ele>
        <time>2019-05-20T18:28:53Z</time>
      </trkpt>
      <trkpt lat="49.4688" lon="1.96893">
        <ele>146</ele>
        <time>2019-05-20T18:29:57Z</time>
      </trkpt>
      <trkpt lat="49.46896" lon="1.9694">
        <ele>145</ele>
        <time>2019-05-20T18:30:05Z</time>
      </trkpt>
      <trkpt lat="49.46913" lon="1.96943">
        <ele>145</ele>
        <time>2019-05-20T18:30:09Z</time>
      </trkpt>
      <trkpt lat="49.46957" lon="1.9687">
        <ele>148</ele>
        <time>2019-05-20T18:30:24Z</time>
      </trkpt>
      <trkpt lat="49.4699" lon="1.96758">
        <ele>150</ele>
        <time>2019-05-20T18:30:42Z</time>
      </trkpt>
      <trkpt lat="49.47044" lon="1.9664">
        <ele>153</ele>
        <time>2019-05-20T18:31:04Z</time>
      </trkpt>
      <trkpt lat="49.47144" lon="1.96498">
        <ele>158</ele>
        <time>2019-05-20T18:31:36Z</time>
      </trkpt>
      <trkpt lat="49.47266" lon="1.96337">
        <ele>165</ele>
        <time>2019-05-20T18:32:14Z</time>
      </trkpt>
      <trkpt lat="49.47685" lon="1.95498">
        <ele>173</ele>
        <time>2019-05-20T18:34:54Z</time>
      </trkpt>
      <trkpt lat="49.47752" lon="1.95271">
        <ele>174</ele>
        <time>2019-05-20T18:35:32Z</time>
      </trkpt>
      <trkpt lat="49.47821" lon="1.95136">
        <ele>172</ele>
        <time>2019-05-20T18:35:58Z</time>
      </trkpt>
      <trkpt lat="49.47831" lon="1.95067">
        <ele>173</ele>
        <time>2019-05-20T18:36:09Z</time>
      </trkpt>
      <trkpt lat="49.47806" lon="1.95056">
        <ele>174</ele>
        <time>2019-05-20T18:36:15Z</time>
      </trkpt>
      <trkpt lat="49.47773" lon="1.95011">
        <ele>175</ele>
        <time>2019-05-20T18:36:25Z</time>
      </trkpt>
      <trkpt lat="49.47632" lon="1.94931">
        <ele>189</ele>
        <time>2019-05-20T18:37:00Z</time>
      </trkpt>
      <trkpt lat="49.4765" lon="1.94836">
        <ele>191</ele>
        <time>2019-05-20T18:37:15Z</time>
      </trkpt>
      <trkpt lat="49.47535" lon="1.94684">
        <ele>205</ele>
        <time>2019-05-20T18:37:51Z</time>
      </trkpt>
      <trkpt lat="49.47551" lon="1.94581">
        <ele>206</ele>
        <time>2019-05-20T18:38:07Z</time>
      </trkpt>
      <trkpt lat="49.4759" lon="1.94504">
        <ele>206</ele>
        <time>2019-05-20T18:38:22Z</time>
      </trkpt>
      <trkpt lat="49.47621" lon="1.94459">
        <ele>201</ele>
        <time>2019-05-20T18:38:31Z</time>
      </trkpt>
      <trkpt lat="49.47702" lon="1.94367">
        <ele>190</ele>
        <time>2019-05-20T18:38:55Z</time>
      </trkpt>
      <trkpt lat="49.47716" lon="1.94307">
        <ele>187</ele>
        <time>2019-05-20T18:39:05Z</time>
      </trkpt>
      <trkpt lat="49.4782" lon="1.94163">
        <ele>175</ele>
        <time>2019-05-20T18:39:37Z</time>
      </trkpt>
      <trkpt lat="49.47872" lon="1.94112">
        <ele>171</ele>
        <time>2019-05-20T18:39:52Z</time>
      </trkpt>
      <trkpt lat="49.47885" lon="1.94073">
        <ele>170</ele>
        <time>2019-05-20T18:39:58Z</time>
      </trkpt>
      <trkpt lat="49.47926" lon="1.94044">
        <ele>167</ele>
        <time>2019-05-20T18:40:09Z</time>
      </trkpt>
      <trkpt lat="49.48012" lon="1.93921">
        <ele>169</ele>
        <time>2019-05-20T18:40:36Z</time>
      </trkpt>
      <trkpt lat="49.48021" lon="1.93863">
        <ele>173</ele>
        <time>2019-05-20T18:40:45Z</time>
      </trkpt>
      <trkpt lat="49.48063" lon="1.9383">
        <ele>179</ele>
        <time>2019-05-20T18:40:56Z</time>
      </trkpt>
      <trkpt lat="49.48053" lon="1.93804">
        <ele>179</ele>
        <time>2019-05-20T18:41:01Z</time>
      </trkpt>
      <trkpt lat="49.4815" lon="1.93643">
        <ele>189</ele>
        <time>2019-05-20T18:41:34Z</time>
      </trkpt>
      <trkpt lat="49.48384" lon="1.93409">
        <ele>178</ele>
        <time>2019-05-20T18:42:39Z</time>
      </trkpt>
      <trkpt lat="49.48453" lon="1.93295">
        <ele>175</ele>
        <time>2019-05-20T18:43:03Z</time>
      </trkpt>
      <trkpt lat="49.48513" lon="1.93147">
        <ele>169</ele>
        <time>2019-05-20T18:43:30Z</time>
      </trkpt>
      <trkpt lat="49.48635" lon="1.931">
        <ele>149</ele>
        <time>2019-05-20T18:43:59Z</time>
      </trkpt>
      <trkpt lat="49.4842" lon="1.92117">
        <ele>160</ele>
        <time>2019-05-20T18:46:36Z</time>
      </trkpt>
      <trkpt lat="49.48388" lon="1.91784">
        <ele>169</ele>
        <time>2019-05-20T18:47:27Z</time>
      </trkpt>
      <trkpt lat="49.48322" lon="1.91596">
        <ele>171</ele>
        <time>2019-05-20T18:48:00Z</time>
      </trkpt>
      <trkpt lat="49.48301" lon="1.91332">
        <ele>177</ele>
        <time>2019-05-20T18:48:40Z</time>
      </trkpt>
      <trkpt lat="49.48262" lon="1.91132">
        <ele>181</ele>
        <time>2019-05-20T18:49:12Z</time>
      </trkpt>
      <trkpt lat="49.48275" lon="1.90886">
        <ele>185</ele>
        <time>2019-05-20T18:49:49Z</time>
      </trkpt>
      <trkpt lat="49.48749" lon="1.90277">
        <ele>193</ele>
        <time>2019-05-20T18:52:13Z</time>
      </trkpt>
      <trkpt lat="49.4877" lon="1.90122">
        <ele>191</ele>
        <time>2019-05-20T18:52:37Z</time>
      </trkpt>
      <trkpt lat="49.48956" lon="1.90123">
        <ele>186</ele>
        <time>2019-05-20T18:53:21Z</time>
      </trkpt>
      <trkpt lat="49.49262" lon="1.89802">
        <ele>174</ele>
        <time>2019-05-20T18:54:47Z</time>
      </trkpt>
      <trkpt lat="49.49319" lon="1.89771">
        <ele>172</ele>
        <time>2019-05-20T18:55:02Z</time>
      </trkpt>
      <trkpt lat="49.49488" lon="1.89532">
        <ele>177</ele>
        <time>2019-05-20T18:55:55Z</time>
      </trkpt>
      <trkpt lat="49.49569" lon="1.89495">
        <ele>178</ele>
        <time>2019-05-20T18:56:15Z</time>
      </trkpt>
      <trkpt lat="49.49656" lon="1.89482">
        <ele>187</ele>
        <time>2019-05-20T18:56:35Z</time>
      </trkpt>
      <trkpt lat="49.49679" lon="1.89235">
        <ele>195</ele>
        <time>2019-05-20T18:57:13Z</time>
      </trkpt>
      <trkpt lat="49.497" lon="1.89188">
        <ele>197</ele>
        <time>2019-05-20T18:57:22Z</time>
      </trkpt>
      <trkpt lat="49.49619" lon="1.89066">
        <ele>197</ele>
        <time>2019-05-20T18:57:48Z</time>
      </trkpt>
      <trkpt lat="49.49624" lon="1.89003">
        <ele>198</ele>
        <time>2019-05-20T18:57:58Z</time>
      </trkpt>
      <trkpt lat="49.49567" lon="1.88838">
        <ele>200</ele>
        <time>2019-05-20T18:58:26Z</time>
      </trkpt>
      <trkpt lat="49.49344" lon="1.88392">
        <ele>204</ele>
        <time>2019-05-20T18:59:52Z</time>
      </trkpt>
      <trkpt lat="49.49208" lon="1.88117">
        <ele>198</ele>
        <time>2019-05-20T19:00:44Z</time>
      </trkpt>
      <trkpt lat="49.4916" lon="1.87991">
        <ele>194</ele>
        <time>2019-05-20T19:01:06Z</time>
      </trkpt>
      <trkpt lat="49.49107" lon="1.87585">
        <ele>187</ele>
        <time>2019-05-20T19:02:09Z</time>
      </trkpt>
      <trkpt lat="49.49056" lon="1.87484">
        <ele>183</ele>
        <time>2019-05-20T19:02:28Z</time>
      </trkpt>
      <trkpt lat="49.49019" lon="1.87212">
        <ele>182</ele>
        <time>2019-05-20T19:03:11Z</time>
      </trkpt>
      <trkpt lat="49.49044" lon="1.87125">
        <ele>185</ele>
        <time>2019-05-20T19:03:25Z</time>
      </trkpt>
      <trkpt lat="49.49088" lon="1.8706">
        <ele>187</ele>
        <time>2019-05-20T19:03:39Z</time>
      </trkpt>
      <trkpt lat="49.49265" lon="1.86984">
        <ele>186</ele>
        <time>2019-05-20T19:04:22Z</time>
      </trkpt>
      <trkpt lat="49.4933" lon="1.86907">
        <ele>185</ele>
        <time>2019-05-20T19:04:41Z</time>
      </trkpt>
      <trkpt lat="49.4941" lon="1.86715">
        <ele>188</ele>
        <time>2019-05-20T19:05:16Z</time>
      </trkpt>
      <trkpt lat="49.49525" lon="1.86706">
        <ele>193</ele>
        <time>2019-05-20T19:05:43Z</time>
      </trkpt>
      <trkpt lat="49.49596" lon="1.86395">
        <ele>194</ele>
        <time>2019-05-20T19:06:33Z</time>
      </trkpt>
      <trkpt lat="49.49629" lon="1.86198">
        <ele>194</ele>
        <time>2019-05-20T19:07:04Z</time>
      </trkpt>
      <trkpt lat="49.49672" lon="1.85625">
        <ele>189</ele>
        <time>2019-05-20T19:08:31Z</time>
      </trkpt>
      <trkpt lat="49.49686" lon="1.85531">
        <ele>188</ele>
        <time>2019-05-20T19:08:46Z</time>
      </trkpt>
      <trkpt lat="49.49755" lon="1.85365">
        <ele>189</ele>
        <time>2019-05-20T19:09:16Z</time>
      </trkpt>
      <trkpt lat="49.49829" lon="1.85098">
        <ele>190</ele>
        <time>2019-05-20T19:10:00Z</time>
      </trkpt>
      <trkpt lat="49.49842" lon="1.84824">
        <ele>187</ele>
        <time>2019-05-20T19:10:41Z</time>
      </trkpt>
      <trkpt lat="49.49883" lon="1.84575">
        <ele>183</ele>
        <time>2019-05-20T19:11:20Z</time>
      </trkpt>
      <trkpt lat="49.49904" lon="1.84297">
        <ele>178</ele>
        <time>2019-05-20T19:12:03Z</time>
      </trkpt>
      <trkpt lat="49.50075" lon="1.84252">
        <ele>187</ele>
        <time>2019-05-20T19:12:43Z</time>
      </trkpt>
      <trkpt lat="49.50238" lon="1.84268">
        <ele>195</ele>
        <time>2019-05-20T19:13:21Z</time>
      </trkpt>
      <trkpt lat="49.50537" lon="1.8424">
        <ele>211</ele>
        <time>2019-05-20T19:14:31Z</time>
      </trkpt>
      <trkpt lat="49.50637" lon="1.84227">
        <ele>212</ele>
        <time>2019-05-20T19:14:55Z</time>
      </trkpt>
      <trkpt lat="49.50857" lon="1.84227">
        <ele>206</ele>
        <time>2019-05-20T19:15:46Z</time>
      </trkpt>
      <trkpt lat="49.5129" lon="1.8437">
        <ele>187</ele>
        <time>2019-05-20T19:17:30Z</time>
      </trkpt>
      <trkpt lat="49.51759" lon="1.8447">
        <ele>181</ele>
        <time>2019-05-20T19:19:20Z</time>
      </trkpt>
      <trkpt lat="49.51816" lon="1.8443">
        <ele>176</ele>
        <time>2019-05-20T19:19:35Z</time>
      </trkpt>
      <trkpt lat="49.51958" lon="1.84403">
        <ele>169</ele>
        <time>2019-05-20T19:20:08Z</time>
      </trkpt>
      <trkpt lat="49.52013" lon="1.84443">
        <ele>165</ele>
        <time>2019-05-20T19:20:22Z</time>
      </trkpt>
      <trkpt lat="49.51962" lon="1.84725">
        <ele>163</ele>
        <time>2019-05-20T19:21:07Z</time>
      </trkpt>
      <trkpt lat="49.52118" lon="1.84542">
        <ele>149</ele>
        <time>2019-05-20T19:21:53Z</time>
      </trkpt>
      <trkpt lat="49.52253" lon="1.84314">
        <ele>138</ele>
        <time>2019-05-20T19:22:39Z</time>
      </trkpt>
      <trkpt lat="49.52319" lon="1.8433">
        <ele>139</ele>
        <time>2019-05-20T19:22:55Z</time>
      </trkpt>
      <trkpt lat="49.52361" lon="1.84463">
        <ele>138</ele>
        <time>2019-05-20T19:23:17Z</time>
      </trkpt>
      <trkpt lat="49.52432" lon="1.84587">
        <ele>138</ele>
        <time>2019-05-20T19:23:42Z</time>
      </trkpt>
      <trkpt lat="49.52458" lon="1.84686">
        <ele>138</ele>
        <time>2019-05-20T19:23:59Z</time>
      </trkpt>
      <trkpt lat="49.52461" lon="1.84856">
        <ele>138</ele>
        <time>2019-05-20T19:24:24Z</time>
      </trkpt>
      <trkpt lat="49.52494" lon="1.84907">
        <ele>141</ele>
        <time>2019-05-20T19:24:35Z</time>
      </trkpt>
      <trkpt lat="49.5249" lon="1.84946">
        <ele>139</ele>
        <time>2019-05-20T19:24:41Z</time>
      </trkpt>
      <trkpt lat="49.52529" lon="1.84995">
        <ele>138</ele>
        <time>2019-05-20T19:24:53Z</time>
      </trkpt>
      <trkpt lat="49.52583" lon="1.85013">
        <ele>138</ele>
        <time>2019-05-20T19:25:06Z</time>
      </trkpt>
      <trkpt lat="49.52711" lon="1.85171">
        <ele>137</ele>
        <time>2019-05-20T19:25:44Z</time>
      </trkpt>
      <trkpt lat="49.52884" lon="1.85289">
        <ele>145</ele>
        <time>2019-05-20T19:26:28Z</time>
      </trkpt>
      <trkpt lat="49.52931" lon="1.85444">
        <ele>149</ele>
        <time>2019-05-20T19:26:54Z</time>
      </trkpt>
      <trkpt lat="49.52947" lon="1.85326">
        <ele>152</ele>
        <time>2019-05-20T19:27:13Z</time>
      </trkpt>
      <trkpt lat="49.53197" lon="1.84877">
        <ele>169</ele>
        <time>2019-05-20T19:28:42Z</time>
      </trkpt>
      <trkpt lat="49.53317" lon="1.84764">
        <ele>162</ele>
        <time>2019-05-20T19:29:15Z</time>
      </trkpt>
      <trkpt lat="49.53416" lon="1.84755">
        <ele>164</ele>
        <time>2019-05-20T19:29:38Z</time>
      </trkpt>
      <trkpt lat="49.53469" lon="1.84804">
        <ele>169</ele>
        <time>2019-05-20T19:29:53Z</time>
      </trkpt>
      <trkpt lat="49.53433" lon="1.84983">
        <ele>174</ele>
        <time>2019-05-20T19:30:21Z</time>
      </trkpt>
      <trkpt lat="49.53518" lon="1.85068">
        <ele>164</ele>
        <time>2019-05-20T19:30:45Z</time>
      </trkpt>
      <trkpt lat="49.53528" lon="1.84743">
        <ele>157</ele>
        <time>2019-05-20T19:31:34Z</time>
      </trkpt>
      <trkpt lat="49.5341" lon="1.84661">
        <ele>145</ele>
        <time>2019-05-20T19:32:04Z</time>
      </trkpt>
      <trkpt lat="49.53443" lon="1.84558">
        <ele>135</ele>
        <time>2019-05-20T19:32:22Z</time>
      </trkpt>
      <trkpt lat="49.53382" lon="1.84391">
        <ele>143</ele>
        <time>2019-05-20T19:32:51Z</time>
      </trkpt>
      <trkpt lat="49.53392" lon="1.84236">
        <ele>163</ele>
        <time>2019-05-20T19:33:14Z</time>
      </trkpt>
      <trkpt lat="49.53359" lon="1.84024">
        <ele>166</ele>
        <time>2019-05-20T19:33:47Z</time>
      </trkpt>
      <trkpt lat="49.5337" lon="1.83902">
        <ele>161</ele>
        <time>2019-05-20T19:34:06Z</time>
      </trkpt>
      <trkpt lat="49.53284" lon="1.83981">
        <ele>153</ele>
        <time>2019-05-20T19:34:30Z</time>
      </trkpt>
      <trkpt lat="49.53264" lon="1.84179">
        <ele>149</ele>
        <time>2019-05-20T19:35:00Z</time>
      </trkpt>
      <trkpt lat="49.53215" lon="1.84303">
        <ele>142</ele>
        <time>2019-05-20T19:35:22Z</time>
      </trkpt>
      <trkpt lat="49.53191" lon="1.8396">
        <ele>144</ele>
        <time>2019-05-20T19:36:14Z</time>
      </trkpt>
      <trkpt lat="49.53071" lon="1.83617">
        <ele>156</ele>
        <time>2019-05-20T19:37:13Z</time>
      </trkpt>
      <trkpt lat="49.52971" lon="1.83426">
        <ele>152</ele>
        <time>2019-05-20T19:37:50Z</time>
      </trkpt>
      <trkpt lat="49.52931" lon="1.83001">
        <ele>151</ele>
        <time>2019-05-20T19:38:56Z</time>
      </trkpt>
      <trkpt lat="49.53156" lon="1.82236">
        <ele>188</ele>
        <time>2019-05-20T19:41:03Z</time>
      </trkpt>
      <trkpt lat="49.53203" lon="1.81848">
        <ele>199</ele>
        <time>2019-05-20T19:42:03Z</time>
      </trkpt>
      <trkpt lat="49.53322" lon="1.8196">
        <ele>197</ele>
        <time>2019-05-20T19:42:35Z</time>
      </trkpt>
      <trkpt lat="49.53343" lon="1.82024">
        <ele>196</ele>
        <time>2019-05-20T19:42:46Z</time>
      </trkpt>
      <trkpt lat="49.53418" lon="1.82006">
        <ele>194</ele>
        <time>2019-05-20T19:43:04Z</time>
      </trkpt>
      <trkpt lat="49.53622" lon="1.81712">
        <ele>170</ele>
        <time>2019-05-20T19:44:09Z</time>
      </trkpt>
      <trkpt lat="49.53682" lon="1.81669">
        <ele>168</ele>
        <time>2019-05-20T19:44:25Z</time>
      </trkpt>
      <trkpt lat="49.53745" lon="1.81583">
        <ele>168</ele>
        <time>2019-05-20T19:44:44Z</time>
      </trkpt>
      <trkpt lat="49.53809" lon="1.81613">
        <ele>164</ele>
        <time>2019-05-20T19:45:00Z</time>
      </trkpt>
      <trkpt lat="49.53847" lon="1.81513">
        <ele>160</ele>
        <time>2019-05-20T19:45:17Z</time>
      </trkpt>
      <trkpt lat="49.53911" lon="1.81466">
        <ele>161</ele>
        <time>2019-05-20T19:45:34Z</time>
      </trkpt>
      <trkpt lat="49.53888" lon="1.81369">
        <ele>162</ele>
        <time>2019-05-20T19:45:50Z</time>
      </trkpt>
      <trkpt lat="49.53924" lon="1.81203">
        <ele>170</ele>
        <time>2019-05-20T19:46:16Z</time>
      </trkpt>
      <trkpt lat="49.54008" lon="1.81044">
        <ele>181</ele>
        <time>2019-05-20T19:46:47Z</time>
      </trkpt>
      <trkpt lat="49.5403" lon="1.80897">
        <ele>186</ele>
        <time>2019-05-20T19:47:10Z</time>
      </trkpt>
      <trkpt lat="49.54085" lon="1.80749">
        <ele>187</ele>
        <time>2019-05-20T19:47:36Z</time>
      </trkpt>
      <trkpt lat="49.54149" lon="1.80397">
        <ele>175</ele>
        <time>2019-05-20T19:48:31Z</time>
      </trkpt>
      <trkpt lat="49.54062" lon="1.80214">
        <ele>175</ele>
        <time>2019-05-20T19:49:06Z</time>
      </trkpt>
      <trkpt lat="49.54184" lon="1.80171">
        <ele>159</ele>
        <time>2019-05-20T19:49:35Z</time>
      </trkpt>
      <trkpt lat="49.54314" lon="1.80045">
        <ele>148</ele>
        <time>2019-05-20T19:50:11Z</time>
      </trkpt>
      <trkpt lat="49.54359" lon="1.79938">
        <ele>146</ele>
        <time>2019-05-20T19:50:30Z</time>
      </trkpt>
      <trkpt lat="49.54372" lon="1.79708">
        <ele>158</ele>
        <time>2019-05-20T19:51:05Z</time>
      </trkpt>
      <trkpt lat="49.54424" lon="1.79508">
        <ele>169</ele>
        <time>2019-05-20T19:51:38Z</time>
      </trkpt>
      <trkpt lat="49.54546" lon="1.78914">
        <ele>157</ele>
        <time>2019-05-20T19:53:12Z</time>
      </trkpt>
      <trkpt lat="49.5456" lon="1.78795">
        <ele>154</ele>
        <time>2019-05-20T19:53:30Z</time>
      </trkpt>
      <trkpt lat="49.54635" lon="1.78847">
        <ele>150</ele>
        <time>2019-05-20T19:53:50Z</time>
      </trkpt>
      <trkpt lat="49.54672" lon="1.78904">
        <ele>148</ele>
        <time>2019-05-20T19:54:02Z</time>
      </trkpt>
      <trkpt lat="49.54678" lon="1.78911">
        <ele>148</ele>
        <time>2019-05-20T19:54:04Z</time>
      </trkpt>
      <trkpt lat="49.54751" lon="1.78844">
        <ele>143</ele>
        <time>2019-05-20T19:54:23Z</time>
      </trkpt>
      <trkpt lat="49.54826" lon="1.78868">
        <ele>141</ele>
        <time>2019-05-20T19:54:41Z</time>
      </trkpt>
      <trkpt lat="49.54918" lon="1.79062">
        <ele>139</ele>
        <time>2019-05-20T19:55:18Z</time>
      </trkpt>
      <trkpt lat="49.54989" lon="1.79114">
        <ele>138</ele>
        <time>2019-05-20T19:55:36Z</time>
      </trkpt>
      <trkpt lat="49.55048" lon="1.79232">
        <ele>138</ele>
        <time>2019-05-20T19:55:59Z</time>
      </trkpt>
      <trkpt lat="49.55134" lon="1.79499">
        <ele>145</ele>
        <time>2019-05-20T19:56:44Z</time>
      </trkpt>
      <trkpt lat="49.5513" lon="1.79651">
        <ele>136</ele>
        <time>2019-05-20T19:57:07Z</time>
      </trkpt>
      <trkpt lat="49.55217" lon="1.79795">
        <ele>130</ele>
        <time>2019-05-20T19:57:37Z</time>
      </trkpt>
      <trkpt lat="49.55334" lon="1.7997">
        <ele>128</ele>
        <time>2019-05-20T19:58:15Z</time>
      </trkpt>
      <trkpt lat="49.55328" lon="1.8003">
        <ele>129</ele>
        <time>2019-05-20T19:58:24Z</time>
      </trkpt>
      <trkpt lat="49.55291" lon="1.80093">
        <ele>130</ele>
        <time>2019-05-20T19:58:37Z</time>
      </trkpt>
      <trkpt lat="49.55302" lon="1.80142">
        <ele>133</ele>
        <time>2019-05-20T19:58:45Z</time>
      </trkpt>
      <trkpt lat="49.55358" lon="1.80215">
        <ele>140</ele>
        <time>2019-05-20T19:59:02Z</time>
      </trkpt>
      <trkpt lat="49.55406" lon="1.80177">
        <ele>143</ele>
        <time>2019-05-20T19:59:14Z</time>
      </trkpt>
      <trkpt lat="49.55512" lon="1.80169">
        <ele>155</ele>
        <time>2019-05-20T19:59:39Z</time>
      </trkpt>
      <trkpt lat="49.5566" lon="1.80211">
        <ele>171</ele>
        <time>2019-05-20T20:00:14Z</time>
      </trkpt>
      <trkpt lat="49.55822" lon="1.8018">
        <ele>181</ele>
        <time>2019-05-20T20:00:52Z</time>
      </trkpt>
      <trkpt lat="49.55978" lon="1.80111">
        <ele>189</ele>
        <time>2019-05-20T20:01:30Z</time>
      </trkpt>
      <trkpt lat="49.56218" lon="1.80285">
        <ele>195</ele>
        <time>2019-05-20T20:02:32Z</time>
      </trkpt>
      <trkpt lat="49.56144" lon="1.799">
        <ele>194</ele>
        <time>2019-05-20T20:03:33Z</time>
      </trkpt>
      <trkpt lat="49.56078" lon="1.79785">
        <ele>192</ele>
        <time>2019-05-20T20:03:56Z</time>
      </trkpt>
      <trkpt lat="49.5624" lon="1.79648">
        <ele>197</ele>
        <time>2019-05-20T20:04:40Z</time>
      </trkpt>
      <trkpt lat="49.56375" lon="1.79585">
        <ele>199</ele>
        <time>2019-05-20T20:05:12Z</time>
      </trkpt>
      <trkpt lat="49.5645" lon="1.79565">
        <ele>199</ele>
        <time>2019-05-20T20:05:30Z</time>
      </trkpt>
      <trkpt lat="49.56681" lon="1.79216">
        <ele>198</ele>
        <time>2019-05-20T20:06:46Z</time>
      </trkpt>
      <trkpt lat="49.56575" lon="1.79088">
        <ele>194</ele>
        <time>2019-05-20T20:07:17Z</time>
      </trkpt>
      <trkpt lat="49.56622" lon="1.78711">
        <ele>182</ele>
        <time>2019-05-20T20:08:15Z</time>
      </trkpt>
      <trkpt lat="49.56733" lon="1.78605">
        <ele>190</ele>
        <time>2019-05-20T20:08:46Z</time>
      </trkpt>
      <trkpt lat="49.56834" lon="1.78572">
        <ele>200</ele>
        <time>2019-05-20T20:09:10Z</time>
      </trkpt>
      <trkpt lat="49.56912" lon="1.78453">
        <ele>202</ele>
        <time>2019-05-20T20:09:36Z</time>
      </trkpt>
      <trkpt lat="49.57004" lon="1.78383">
        <ele>206</ele>
        <time>2019-05-20T20:10:00Z</time>
      </trkpt>
      <trkpt lat="49.57182" lon="1.78161">
        <ele>208</ele>
        <time>2019-05-20T20:10:53Z</time>
      </trkpt>
      <trkpt lat="49.57248" lon="1.78103">
        <ele>210</ele>
        <time>2019-05-20T20:11:11Z</time>
      </trkpt>
      <trkpt lat="49.57321" lon="1.77957">
        <ele>209</ele>
        <time>2019-05-20T20:11:39Z</time>
      </trkpt>
      <trkpt lat="49.57317" lon="1.77861">
        <ele>207</ele>
        <time>2019-05-20T20:11:53Z</time>
      </trkpt>
      <trkpt lat="49.57444" lon="1.77689">
        <ele>207</ele>
        <time>2019-05-20T20:12:33Z</time>
      </trkpt>
      <trkpt lat="49.57363" lon="1.77612">
        <ele>197</ele>
        <time>2019-05-20T20:12:55Z</time>
      </trkpt>
      <trkpt lat="49.57377" lon="1.77545">
        <ele>192</ele>
        <time>2019-05-20T20:13:06Z</time>
      </trkpt>
      <trkpt lat="49.57355" lon="1.77519">
        <ele>184</ele>
        <time>2019-05-20T20:13:12Z</time>
      </trkpt>
      <trkpt lat="49.57463" lon="1.77363">
        <ele>170</ele>
        <time>2019-05-20T20:13:47Z</time>
      </trkpt>
      <trkpt lat="49.57507" lon="1.77205">
        <ele>147</ele>
        <time>2019-05-20T20:14:13Z</time>
      </trkpt>
      <trkpt lat="49.57421" lon="1.77019">
        <ele>138</ele>
        <time>2019-05-20T20:14:47Z</time>
      </trkpt>
      <trkpt lat="49.57359" lon="1.76957">
        <ele>140</ele>
        <time>2019-05-20T20:15:05Z</time>
      </trkpt>
      <trkpt lat="49.57299" lon="1.76846">
        <ele>141</ele>
        <time>2019-05-20T20:15:26Z</time>
      </trkpt>
      <trkpt lat="49.57346" lon="1.76764">
        <ele>142</ele>
        <time>2019-05-20T20:15:43Z</time>
      </trkpt>
      <trkpt lat="49.57533" lon="1.76582">
        <ele>144</ele>
        <time>2019-05-20T20:16:35Z</time>
      </trkpt>
      <trkpt lat="49.57637" lon="1.76459">
        <ele>142</ele>
        <time>2019-05-20T20:17:05Z</time>
      </trkpt>
      <trkpt lat="49.57684" lon="1.76362">
        <ele>142</ele>
        <time>2019-05-20T20:17:24Z</time>
      </trkpt>
      <trkpt lat="49.57694" lon="1.76275">
        <ele>143</ele>
        <time>2019-05-20T20:17:37Z</time>
      </trkpt>
      <trkpt lat="49.57745" lon="1.76205">
        <ele>143</ele>
        <time>2019-05-20T20:17:53Z</time>
      </trkpt>
      <trkpt lat="49.57777" lon="1.76102">
        <ele>145</ele>
        <time>2019-05-20T20:18:10Z</time>
      </trkpt>
      <trkpt lat="49.57821" lon="1.76043">
        <ele>144</ele>
        <time>2019-05-20T20:18:24Z</time>
      </trkpt>
      <trkpt lat="49.5798" lon="1.75907">
        <ele>141</ele>
        <time>2019-05-20T20:19:06Z</time>
      </trkpt>
      <trkpt lat="49.58019" lon="1.75954">
        <ele>142</ele>
        <time>2019-05-20T20:19:18Z</time>
      </trkpt>
      <trkpt lat="49.58026" lon="1.76016">
        <ele>143</ele>
        <time>2019-05-20T20:19:27Z</time>
      </trkpt>
      <trkpt lat="49.58074" lon="1.76025">
        <ele>148</ele>
        <time>2019-05-20T20:19:39Z</time>
      </trkpt>
      <trkpt lat="49.5809" lon="1.75918">
        <ele>144</ele>
        <time>2019-05-20T20:19:55Z</time>
      </trkpt>
      <trkpt lat="49.58112" lon="1.7588">
        <ele>144</ele>
        <time>2019-05-20T20:20:03Z</time>
      </trkpt>
      <trkpt lat="49.58151" lon="1.7586">
        <ele>145</ele>
        <time>2019-05-20T20:20:13Z</time>
      </trkpt>
      <trkpt lat="49.58177" lon="1.75889">
        <ele>148</ele>
        <time>2019-05-20T20:20:20Z</time>
      </trkpt>
      <trkpt lat="49.58259" lon="1.75817">
        <ele>148</ele>
        <time>2019-05-20T20:20:42Z</time>
      </trkpt>
      <trkpt lat="49.58329" lon="1.75859">
        <ele>157</ele>
        <time>2019-05-20T20:21:00Z</time>
      </trkpt>
      <trkpt lat="49.58536" lon="1.75545">
        <ele>164</ele>
        <time>2019-05-20T20:22:07Z</time>
      </trkpt>
      <trkpt lat="49.58562" lon="1.75352">
        <ele>154</ele>
        <time>2019-05-20T20:22:37Z</time>
      </trkpt>
      <trkpt lat="49.5862" lon="1.75193">
        <ele>158</ele>
        <time>2019-05-20T20:23:05Z</time>
      </trkpt>
      <trkpt lat="49.5867" lon="1.74974">
        <ele>156</ele>
        <time>2019-05-20T20:23:40Z</time>
      </trkpt>
      <trkpt lat="49.58749" lon="1.74778">
        <ele>154</ele>
        <time>2019-05-20T20:24:15Z</time>
      </trkpt>
      <trkpt lat="49.58805" lon="1.74745">
        <ele>151</ele>
        <time>2019-05-20T20:24:29Z</time>
      </trkpt>
      <trkpt lat="49.58859" lon="1.74731">
        <ele>151</ele>
        <time>2019-05-20T20:24:42Z</time>
      </trkpt>
      <trkpt lat="49.58909" lon="1.74706">
        <ele>152</ele>
        <time>2019-05-20T20:24:54Z</time>
      </trkpt>
      <trkpt lat="49.59005" lon="1.74527">
        <ele>159</ele>
        <time>2019-05-20T20:25:29Z</time>
      </trkpt>
      <trkpt lat="49.58955" lon="1.74475">
        <ele>154</ele>
        <time>2019-05-20T20:25:43Z</time>
      </trkpt>
      <trkpt lat="49.58894" lon="1.74469">
        <ele>150</ele>
        <time>2019-05-20T20:25:58Z</time>
      </trkpt>
      <trkpt lat="49.58804" lon="1.74577">
        <ele>148</ele>
        <time>2019-05-20T20:26:24Z</time>
      </trkpt>
      <trkpt lat="49.58674" lon="1.74594">
        <ele>146</ele>
        <time>2019-05-20T20:26:55Z</time>
      </trkpt>
      <trkpt lat="49.58546" lon="1.74547">
        <ele>154</ele>
        <time>2019-05-20T20:27:25Z</time>
      </trkpt>
      <trkpt lat="49.58716" lon="1.74276">
        <ele>156</ele>
        <time>2019-05-20T20:28:22Z</time>
      </trkpt>
      <trkpt lat="49.58826" lon="1.74088">
        <ele>158</ele>
        <time>2019-05-20T20:29:01Z</time>
      </trkpt>
      <trkpt lat="49.58908" lon="1.73897">
        <ele>161</ele>
        <time>2019-05-20T20:29:36Z</time>
      </trkpt>
      <trkpt lat="49.58955" lon="1.73735">
        <ele>166</ele>
        <time>2019-05-20T20:30:02Z</time>
      </trkpt>
      <trkpt lat="49.58996" lon="1.73569">
        <ele>165</ele>
        <time>2019-05-20T20:30:29Z</time>
      </trkpt>
      <trkpt lat="49.59041" lon="1.73462">
        <ele>169</ele>
        <time>2019-05-20T20:30:49Z</time>
      </trkpt>
      <trkpt lat="49.59095" lon="1.73405">
        <ele>167</ele>
        <time>2019-05-20T20:31:04Z</time>
      </trkpt>
      <trkpt lat="49.59101" lon="1.7337">
        <ele>168</ele>
        <time>2019-05-20T20:31:09Z</time>
      </trkpt>
      <trkpt lat="49.59114" lon="1.73242">
        <ele>163</ele>
        <time>2019-05-20T20:31:29Z</time>
      </trkpt>
      <trkpt lat="49.59154" lon="1.73085">
        <ele>154</ele>
        <time>2019-05-20T20:31:54Z</time>
      </trkpt>
      <trkpt lat="49.59139" lon="1.72944">
        <ele>157</ele>
        <time>2019-05-20T20:32:16Z</time>
      </trkpt>
      <trkpt lat="49.59146" lon="1.7284">
        <ele>158</ele>
        <time>2019-05-20T20:32:32Z</time>
      </trkpt>
      <trkpt lat="49.59087" lon="1.72511">
        <ele>164</ele>
        <time>2019-05-20T20:33:24Z</time>
      </trkpt>
      <trkpt lat="49.59097" lon="1.72396">
        <ele>170</ele>
        <time>2019-05-20T20:33:41Z</time>
      </trkpt>
      <trkpt lat="49.59049" lon="1.7221">
        <ele>179</ele>
        <time>2019-05-20T20:34:12Z</time>
      </trkpt>
      <trkpt lat="49.59004" lon="1.72118">
        <ele>179</ele>
        <time>2019-05-20T20:34:29Z</time>
      </trkpt>
      <trkpt lat="49.58966" lon="1.72004">
        <ele>182</ele>
        <time>2019-05-20T20:34:48Z</time>
      </trkpt>
      <trkpt lat="49.59019" lon="1.72044">
        <ele>186</ele>
        <time>2019-05-20T20:35:02Z</time>
      </trkpt>
      <trkpt lat="49.59079" lon="1.72019">
        <ele>191</ele>
        <time>2019-05-20T20:35:17Z</time>
      </trkpt>
      <trkpt lat="49.59114" lon="1.71927">
        <ele>195</ele>
        <time>2019-05-20T20:35:33Z</time>
      </trkpt>
      <trkpt lat="49.59244" lon="1.71911">
        <ele>196</ele>
        <time>2019-05-20T20:36:03Z</time>
      </trkpt>
      <trkpt lat="49.59365" lon="1.71974">
        <ele>188</ele>
        <time>2019-05-20T20:36:33Z</time>
      </trkpt>
      <trkpt lat="49.59481" lon="1.72078">
        <ele>167</ele>
        <time>2019-05-20T20:37:04Z</time>
      </trkpt>
      <trkpt lat="49.59523" lon="1.72142">
        <ele>163</ele>
        <time>2019-05-20T20:37:18Z</time>
      </trkpt>
      <trkpt lat="49.59576" lon="1.72143">
        <ele>159</ele>
        <time>2019-05-20T20:37:31Z</time>
      </trkpt>
      <trkpt lat="49.59619" lon="1.72203">
        <ele>156</ele>
        <time>2019-05-20T20:37:44Z</time>
      </trkpt>
      <trkpt lat="49.59694" lon="1.72031">
        <ele>156</ele>
        <time>2019-05-20T20:38:15Z</time>
      </trkpt>
      <trkpt lat="49.59749" lon="1.71925">
        <ele>156</ele>
        <time>2019-05-20T20:38:36Z</time>
      </trkpt>
      <trkpt lat="49.59852" lon="1.71802">
        <ele>160</ele>
        <time>2019-05-20T20:39:06Z</time>
      </trkpt>
      <trkpt lat="49.5988" lon="1.71813">
        <ele>160</ele>
        <time>2019-05-20T20:39:13Z</time>
      </trkpt>
      <trkpt lat="49.59931" lon="1.71735">
        <ele>159</ele>
        <time>2019-05-20T20:39:30Z</time>
      </trkpt>
      <trkpt lat="49.59963" lon="1.7165">
        <ele>159</ele>
        <time>2019-05-20T20:39:45Z</time>
      </trkpt>
      <trkpt lat="49.60005" lon="1.7155">
        <ele>160</ele>
        <time>2019-05-20T20:40:03Z</time>
      </trkpt>
      <trkpt lat="49.60051" lon="1.71505">
        <ele>160</ele>
        <time>2019-05-20T20:40:16Z</time>
      </trkpt>
      <trkpt lat="49.60154" lon="1.71629">
        <ele>163</ele>
        <time>2019-05-20T20:40:46Z</time>
      </trkpt>
      <trkpt lat="49.60261" lon="1.71462">
        <ele>172</ele>
        <time>2019-05-20T20:41:22Z</time>
      </trkpt>
      <trkpt lat="49.60322" lon="1.71396">
        <ele>182</ele>
        <time>2019-05-20T20:41:39Z</time>
      </trkpt>
      <trkpt lat="49.60405" lon="1.71327">
        <ele>190</ele>
        <time>2019-05-20T20:42:01Z</time>
      </trkpt>
      <trkpt lat="49.60453" lon="1.71194">
        <ele>189</ele>
        <time>2019-05-20T20:42:24Z</time>
      </trkpt>
      <trkpt lat="49.60534" lon="1.711">
        <ele>193</ele>
        <time>2019-05-20T20:42:48Z</time>
      </trkpt>
      <trkpt lat="49.60732" lon="1.70658">
        <ele>193</ele>
        <time>2019-05-20T20:44:09Z</time>
      </trkpt>
      <trkpt lat="49.60787" lon="1.70497">
        <ele>191</ele>
        <time>2019-05-20T20:44:37Z</time>
      </trkpt>
      <trkpt lat="49.6081" lon="1.7023">
        <ele>175</ele>
        <time>2019-05-20T20:45:17Z</time>
      </trkpt>
      <trkpt lat="49.60836" lon="1.70107">
        <ele>172</ele>
        <time>2019-05-20T20:45:37Z</time>
      </trkpt>
      <trkpt lat="49.60891" lon="1.69982">
        <ele>176</ele>
        <time>2019-05-20T20:46:00Z</time>
      </trkpt>
      <trkpt lat="49.60906" lon="1.69867">
        <ele>171</ele>
        <time>2019-05-20T20:46:18Z</time>
      </trkpt>
      <trkpt lat="49.61043" lon="1.69678">
        <ele>176</ele>
        <time>2019-05-20T20:47:01Z</time>
      </trkpt>
      <trkpt lat="49.61078" lon="1.69487">
        <ele>174</ele>
        <time>2019-05-20T20:47:31Z</time>
      </trkpt>
      <trkpt lat="49.61115" lon="1.69294">
        <ele>176</ele>
        <time>2019-05-20T20:48:01Z</time>
      </trkpt>
      <trkpt lat="49.61085" lon="1.69267">
        <ele>173</ele>
        <time>2019-05-20T20:48:09Z</time>
      </trkpt>
      <trkpt lat="49.61051" lon="1.69268">
        <ele>174</ele>
        <time>2019-05-20T20:48:17Z</time>
      </trkpt>
      <trkpt lat="49.61086" lon="1.69267">
        <ele>173</ele>
        <time>2019-05-20T20:48:25Z</time>
      </trkpt>
      <trkpt lat="49.61113" lon="1.69291">
        <ele>176</ele>
        <time>2019-05-20T20:48:33Z</time>
      </trkpt>
      <trkpt lat="49.61145" lon="1.69273">
        <ele>178</ele>
        <time>2019-05-20T20:48:40Z</time>
      </trkpt>
      <trkpt lat="49.61162" lon="1.6935">
        <ele>183</ele>
        <time>2019-05-20T20:48:53Z</time>
      </trkpt>
      <trkpt lat="49.61218" lon="1.6935">
        <ele>192</ele>
        <time>2019-05-20T20:49:06Z</time>
      </trkpt>
      <trkpt lat="49.61333" lon="1.69242">
        <ele>202</ele>
        <time>2019-05-20T20:49:37Z</time>
      </trkpt>
      <trkpt lat="49.61461" lon="1.69296">
        <ele>210</ele>
        <time>2019-05-20T20:50:08Z</time>
      </trkpt>
      <trkpt lat="49.61677" lon="1.6924">
        <ele>221</ele>
        <time>2019-05-20T20:50:59Z</time>
      </trkpt>
      <trkpt lat="49.61745" lon="1.69246">
        <ele>223</ele>
        <time>2019-05-20T20:51:15Z</time>
      </trkpt>
      <trkpt lat="49.61668" lon="1.68968">
        <ele>218</ele>
        <time>2019-05-20T20:52:01Z</time>
      </trkpt>
      <trkpt lat="49.61691" lon="1.68724">
        <ele>212</ele>
        <time>2019-05-20T20:52:38Z</time>
      </trkpt>
      <trkpt lat="49.6186" lon="1.68711">
        <ele>224</ele>
        <time>2019-05-20T20:53:18Z</time>
      </trkpt>
      <trkpt lat="49.61919" lon="1.68551">
        <ele>227</ele>
        <time>2019-05-20T20:53:46Z</time>
      </trkpt>
      <trkpt lat="49.61894" lon="1.68499">
        <ele>228</ele>
        <time>2019-05-20T20:53:56Z</time>
      </trkpt>
      <trkpt lat="49.6188" lon="1.68437">
        <ele>228</ele>
        <time>2019-05-20T20:54:05Z</time>
      </trkpt>
      <trkpt lat="49.61849" lon="1.68406">
        <ele>226</ele>
        <time>2019-05-20T20:54:14Z</time>
      </trkpt>
      <trkpt lat="49.61859" lon="1.68286">
        <ele>220</ele>
        <time>2019-05-20T20:54:32Z</time>
      </trkpt>
      <trkpt lat="49.61915" lon="1.68323">
        <ele>223</ele>
        <time>2019-05-20T20:54:47Z</time>
      </trkpt>
      <trkpt lat="49.6198" lon="1.68329">
        <ele>221</ele>
        <time>2019-05-20T20:55:02Z</time>
      </trkpt>
      <trkpt lat="49.62062" lon="1.68428">
        <ele>223</ele>
        <time>2019-05-20T20:55:26Z</time>
      </trkpt>
      <trkpt lat="49.6215" lon="1.68475">
        <ele>219</ele>
        <time>2019-05-20T20:55:48Z</time>
      </trkpt>
      <trkpt lat="49.62184" lon="1.6845">
        <ele>216</ele>
        <time>2019-05-20T20:55:57Z</time>
      </trkpt>
      <trkpt lat="49.62231" lon="1.68468">
        <ele>212</ele>
        <time>2019-05-20T20:56:08Z</time>
      </trkpt>
      <trkpt lat="49.62217" lon="1.68363">
        <ele>206</ele>
        <time>2019-05-20T20:56:24Z</time>
      </trkpt>
      <trkpt lat="49.62176" lon="1.68255">
        <ele>193</ele>
        <time>2019-05-20T20:56:43Z</time>
      </trkpt>
      <trkpt lat="49.61912" lon="1.68064">
        <ele>186</ele>
        <time>2019-05-20T20:57:51Z</time>
      </trkpt>
      <trkpt lat="49.61751" lon="1.67977">
        <ele>177</ele>
        <time>2019-05-20T20:58:31Z</time>
      </trkpt>
      <trkpt lat="49.61832" lon="1.67898">
        <ele>178</ele>
        <time>2019-05-20T20:58:53Z</time>
      </trkpt>
      <trkpt lat="49.61912" lon="1.67881">
        <ele>182</ele>
        <time>2019-05-20T20:59:12Z</time>
      </trkpt>
      <trkpt lat="49.61948" lon="1.67652">
        <ele>188</ele>
        <time>2019-05-20T20:59:48Z</time>
      </trkpt>
      <trkpt lat="49.61994" lon="1.67569">
        <ele>193</ele>
        <time>2019-05-20T21:00:05Z</time>
      </trkpt>
      <trkpt lat="49.62073" lon="1.67576">
        <ele>202</ele>
        <time>2019-05-20T21:00:23Z</time>
      </trkpt>
      <trkpt lat="49.6214" lon="1.67429">
        <ele>207</ele>
        <time>2019-05-20T21:00:50Z</time>
      </trkpt>
      <trkpt lat="49.62318" lon="1.67185">
        <ele>215</ele>
        <time>2019-05-20T21:01:46Z</time>
      </trkpt>
      <trkpt lat="49.62377" lon="1.67095">
        <ele>216</ele>
        <time>2019-05-20T21:02:05Z</time>
      </trkpt>
      <trkpt lat="49.62603" lon="1.66985">
        <ele>219</ele>
        <time>2019-05-20T21:03:00Z</time>
      </trkpt>
      <trkpt lat="49.62645" lon="1.66932">
        <ele>221</ele>
        <time>2019-05-20T21:03:13Z</time>
      </trkpt>
      <trkpt lat="49.63599" lon="1.66338">
        <ele>220</ele>
        <time>2019-05-20T21:07:13Z</time>
      </trkpt>
      <trkpt lat="49.63675" lon="1.66231">
        <ele>227</ele>
        <time>2019-05-20T21:07:37Z</time>
      </trkpt>
      <trkpt lat="49.6384" lon="1.66338">
        <ele>228</ele>
        <time>2019-05-20T21:08:19Z</time>
      </trkpt>
      <trkpt lat="49.63936" lon="1.66445">
        <ele>229</ele>
        <time>2019-05-20T21:08:47Z</time>
      </trkpt>
      <trkpt lat="49.64098" lon="1.66052">
        <ele>227</ele>
        <time>2019-05-20T21:09:57Z</time>
      </trkpt>
      <trkpt lat="49.64032" lon="1.6596">
        <ele>228</ele>
        <time>2019-05-20T21:10:18Z</time>
      </trkpt>
      <trkpt lat="49.63992" lon="1.65807">
        <ele>224</ele>
        <time>2019-05-20T21:10:43Z</time>
      </trkpt>
      <trkpt lat="49.64157" lon="1.65583">
        <ele>210</ele>
        <time>2019-05-20T21:11:34Z</time>
      </trkpt>
      <trkpt lat="49.64303" lon="1.65328">
        <ele>225</ele>
        <time>2019-05-20T21:12:26Z</time>
      </trkpt>
      <trkpt lat="49.64352" lon="1.64787">
        <ele>231</ele>
        <time>2019-05-20T21:13:48Z</time>
      </trkpt>
      <trkpt lat="49.64818" lon="1.63802">
        <ele>236</ele>
        <time>2019-05-20T21:16:53Z</time>
      </trkpt>
      <trkpt lat="49.64845" lon="1.63577">
        <ele>234</ele>
        <time>2019-05-20T21:17:27Z</time>
      </trkpt>
      <trkpt lat="49.64993" lon="1.63322">
        <ele>241</ele>
        <time>2019-05-20T21:18:19Z</time>
      </trkpt>
      <trkpt lat="49.6534" lon="1.6251">
        <ele>236</ele>
        <time>2019-05-20T21:20:46Z</time>
      </trkpt>
      <trkpt lat="49.65357" lon="1.6201">
        <ele>198</ele>
        <time>2019-05-20T21:22:02Z</time>
      </trkpt>
      <trkpt lat="49.65377" lon="1.61842">
        <ele>178</ele>
        <time>2019-05-20T21:22:28Z</time>
      </trkpt>
      <trkpt lat="49.65294" lon="1.61582">
        <ele>170</ele>
        <time>2019-05-20T21:23:12Z</time>
      </trkpt>
      <trkpt lat="49.65912" lon="1.60964">
        <ele>166</ele>
        <time>2019-05-20T21:26:04Z</time>
      </trkpt>
      <trkpt lat="49.6649" lon="1.59055">
        <ele>155</ele>
        <time>2019-05-20T21:31:22Z</time>
      </trkpt>
      <trkpt lat="49.66361" lon="1.59009">
        <ele>147</ele>
        <time>2019-05-20T21:31:53Z</time>
      </trkpt>
      <trkpt lat="49.66279" lon="1.58831">
        <ele>147</ele>
        <time>2019-05-20T21:32:26Z</time>
      </trkpt>
      <trkpt lat="49.66153" lon="1.58861">
        <ele>152</ele>
        <time>2019-05-20T21:32:56Z</time>
      </trkpt>
      <trkpt lat="49.66173" lon="1.58616">
        <ele>146</ele>
        <time>2019-05-20T21:33:33Z</time>
      </trkpt>
      <trkpt lat="49.66077" lon="1.58463">
        <ele>150</ele>
        <time>2019-05-20T21:34:05Z</time>
      </trkpt>
      <trkpt lat="49.66037" lon="1.58356">
        <ele>155</ele>
        <time>2019-05-20T21:34:24Z</time>
      </trkpt>
      <trkpt lat="49.65961" lon="1.583">
        <ele>161</ele>
        <time>2019-05-20T21:34:44Z</time>
      </trkpt>
      <trkpt lat="49.65928" lon="1.58065">
        <ele>166</ele>
        <time>2019-05-20T21:35:20Z</time>
      </trkpt>
      <trkpt lat="49.6572" lon="1.57545">
        <ele>181</ele>
        <time>2019-05-20T21:36:53Z</time>
      </trkpt>
      <trkpt lat="49.65644" lon="1.57177">
        <ele>210</ele>
        <time>2019-05-20T21:37:51Z</time>
      </trkpt>
      <trkpt lat="49.65552" lon="1.56963">
        <ele>227</ele>
        <time>2019-05-20T21:38:30Z</time>
      </trkpt>
      <trkpt lat="49.65631" lon="1.5681">
        <ele>226</ele>
        <time>2019-05-20T21:38:59Z</time>
      </trkpt>
      <trkpt lat="49.65486" lon="1.56453">
        <ele>217</ele>
        <time>2019-05-20T21:40:03Z</time>
      </trkpt>
      <trkpt lat="49.65548" lon="1.56299">
        <ele>209</ele>
        <time>2019-05-20T21:40:31Z</time>
      </trkpt>
      <trkpt lat="49.65486" lon="1.56085">
        <ele>206</ele>
        <time>2019-05-20T21:41:06Z</time>
      </trkpt>
      <trkpt lat="49.65112" lon="1.55753">
        <ele>197</ele>
        <time>2019-05-20T21:42:47Z</time>
      </trkpt>
      <trkpt lat="49.65027" lon="1.55751">
        <ele>194</ele>
        <time>2019-05-20T21:43:07Z</time>
      </trkpt>
      <trkpt lat="49.6486" lon="1.55714">
        <ele>188</ele>
        <time>2019-05-20T21:43:46Z</time>
      </trkpt>
      <trkpt lat="49.64762" lon="1.55678">
        <ele>185</ele>
        <time>2019-05-20T21:44:09Z</time>
      </trkpt>
      <trkpt lat="49.64595" lon="1.55663">
        <ele>183</ele>
        <time>2019-05-20T21:44:49Z</time>
      </trkpt>
      <trkpt lat="49.64534" lon="1.55411">
        <ele>181</ele>
        <time>2019-05-20T21:45:29Z</time>
      </trkpt>
      <trkpt lat="49.64519" lon="1.5528">
        <ele>179</ele>
        <time>2019-05-20T21:45:49Z</time>
      </trkpt>
      <trkpt lat="49.64336" lon="1.54615">
        <ele>176</ele>
        <time>2019-05-20T21:47:39Z</time>
      </trkpt>
      <trkpt lat="49.64266" lon="1.54028">
        <ele>166</ele>
        <time>2019-05-20T21:49:09Z</time>
      </trkpt>
      <trkpt lat="49.64177" lon="1.5386">
        <ele>164</ele>
        <time>2019-05-20T21:49:42Z</time>
      </trkpt>
      <trkpt lat="49.64283" lon="1.53732">
        <ele>161</ele>
        <time>2019-05-20T21:50:13Z</time>
      </trkpt>
      <trkpt lat="49.64227" lon="1.53743">
        <ele>162</ele>
        <time>2019-05-20T21:50:26Z</time>
      </trkpt>
      <trkpt lat="49.63876" lon="1.54197">
        <ele>170</ele>
        <time>2019-05-20T21:52:13Z</time>
      </trkpt>
      <trkpt lat="49.63738" lon="1.54278">
        <ele>169</ele>
        <time>2019-05-20T21:52:48Z</time>
      </trkpt>
      <trkpt lat="49.635" lon="1.54161">
        <ele>165</ele>
        <time>2019-05-20T21:53:46Z</time>
      </trkpt>
      <trkpt lat="49.6347" lon="1.54233">
        <ele>164</ele>
        <time>2019-05-20T21:53:59Z</time>
      </trkpt>
      <trkpt lat="49.63268" lon="1.54212">
        <ele>164</ele>
        <time>2019-05-20T21:54:46Z</time>
      </trkpt>
      <trkpt lat="49.63123" lon="1.5412">
        <ele>165</ele>
        <time>2019-05-20T21:55:23Z</time>
      </trkpt>
      <trkpt lat="49.63057" lon="1.54146">
        <ele>162</ele>
        <time>2019-05-20T21:55:39Z</time>
      </trkpt>
      <trkpt lat="49.63027" lon="1.54233">
        <ele>160</ele>
        <time>2019-05-20T21:55:54Z</time>
      </trkpt>
      <trkpt lat="49.62944" lon="1.54187">
        <ele>165</ele>
        <time>2019-05-20T21:56:14Z</time>
      </trkpt>
      <trkpt lat="49.62868" lon="1.54136">
        <ele>169</ele>
        <time>2019-05-20T21:56:34Z</time>
      </trkpt>
      <trkpt lat="49.62796" lon="1.5433">
        <ele>164</ele>
        <time>2019-05-20T21:57:07Z</time>
      </trkpt>
      <trkpt lat="49.62448" lon="1.54284">
        <ele>158</ele>
        <time>2019-05-20T21:58:29Z</time>
      </trkpt>
      <trkpt lat="49.6228" lon="1.54401">
        <ele>153</ele>
        <time>2019-05-20T21:59:12Z</time>
      </trkpt>
      <trkpt lat="49.6221" lon="1.54253">
        <ele>154</ele>
        <time>2019-05-20T21:59:40Z</time>
      </trkpt>
      <trkpt lat="49.62118" lon="1.54074">
        <ele>159</ele>
        <time>2019-05-20T22:00:14Z</time>
      </trkpt>
      <trkpt lat="49.6184" lon="1.54284">
        <ele>153</ele>
        <time>2019-05-20T22:01:27Z</time>
      </trkpt>
      <trkpt lat="49.61721" lon="1.54508">
        <ele>150</ele>
        <time>2019-05-20T22:02:10Z</time>
      </trkpt>
      <trkpt lat="49.61638" lon="1.54569">
        <ele>151</ele>
        <time>2019-05-20T22:02:32Z</time>
      </trkpt>
      <trkpt lat="49.61678" lon="1.54707">
        <ele>147</ele>
        <time>2019-05-20T22:02:55Z</time>
      </trkpt>
      <trkpt lat="49.61602" lon="1.54922">
        <ele>147</ele>
        <time>2019-05-20T22:03:32Z</time>
      </trkpt>
      <trkpt lat="49.61564" lon="1.55218">
        <ele>149</ele>
        <time>2019-05-20T22:04:18Z</time>
      </trkpt>
      <trkpt lat="49.61511" lon="1.55347">
        <ele>150</ele>
        <time>2019-05-20T22:04:41Z</time>
      </trkpt>
      <trkpt lat="49.61439" lon="1.55115">
        <ele>154</ele>
        <time>2019-05-20T22:05:20Z</time>
      </trkpt>
    </trkseg>
  </trk>
</gpx>